createdAt,value
2019-01-02T00:00:21.314Z,89.68
2019-01-02T00:02:50.817Z,89.37
2019-01-02T00:05:20.847Z,90.07
2019-01-02T00:07:50.658Z,90.33
2019-01-02T00:10:19.886Z,89.90
2019-01-02T00:12:49.046Z,90.31
2019-01-02T00:15:18.836Z,90.22
2019-01-02T00:17:48.795Z,88.88
2019-01-02T00:20:18.308Z,85.75
2019-01-02T00:22:47.443Z,84.88
2019-01-02T00:25:16.713Z,84.35
2019-01-02T00:27:45.876Z,83.24
2019-01-02T00:30:15.177Z,83.75
2019-01-02T00:32:44.503Z,87.58
2019-01-02T00:35:13.683Z,86.10
2019-01-02T00:37:43.064Z,87.70
2019-01-02T00:40:12.495Z,89.23
2019-01-02T00:42:42.158Z,90.52
2019-01-02T00:45:11.476Z,91.79
2019-01-02T00:47:40.902Z,92.96
2019-01-02T00:50:11.797Z,93.54
2019-01-02T00:52:41.041Z,97.44
2019-01-02T00:55:10.647Z,91.41
2019-01-02T00:57:40.547Z,93.43
2019-01-02T01:00:14.404Z,92.62
2019-01-02T01:02:43.720Z,93.77
2019-01-02T01:05:12.974Z,94.25
2019-01-02T01:07:44.223Z,94.43
2019-01-02T01:10:15.489Z,94.12
2019-01-02T01:12:44.878Z,94.85
2019-01-02T01:15:14.005Z,95.04
2019-01-02T01:17:43.513Z,93.11
2019-01-02T01:20:15.472Z,91.74
2019-01-02T01:22:44.595Z,91.29
2019-01-02T01:25:13.842Z,91.79
2019-01-02T01:27:43.053Z,92.20
2019-01-02T01:30:12.983Z,90.78
2019-01-02T01:32:42.255Z,90.97
2019-01-02T01:35:13.822Z,90.38
2019-01-02T01:37:48.804Z,89.70
2019-01-02T01:40:18.051Z,85.55
2019-01-02T01:42:47.135Z,85.55
2019-01-02T01:45:16.388Z,84.31
2019-01-02T01:47:45.485Z,85.93
2019-01-02T01:50:15.010Z,84.33
2019-01-02T01:52:44.135Z,81.58
2019-01-02T01:55:13.227Z,82.94
2019-01-02T01:57:42.876Z,84.27
2019-01-02T02:00:14.670Z,83.24
2019-01-02T02:02:43.747Z,82.82
2019-01-02T02:05:12.823Z,83.20
2019-01-02T02:07:42.218Z,83.20
2019-01-02T02:10:14.345Z,81.42
2019-01-02T02:12:43.697Z,82.47
2019-01-02T02:15:12.844Z,80.85
2019-01-02T02:17:42.875Z,80.13
2019-01-02T02:20:13.516Z,80.49
2019-01-02T02:22:42.724Z,78.86
2019-01-02T02:25:29.260Z,79.54
2019-01-02T02:27:58.370Z,77.90
2019-01-02T02:30:28.809Z,79.68
2019-01-02T02:32:57.898Z,81.24
2019-01-02T02:35:27.894Z,80.66
2019-01-02T02:37:57.474Z,80.72
2019-01-02T02:40:26.565Z,79.74
2019-01-02T02:42:55.633Z,79.63
2019-01-02T02:45:25.107Z,80.97
2019-01-02T02:47:55.034Z,81.54
2019-01-02T02:50:24.419Z,81.10
2019-01-02T02:52:53.808Z,82.66
2019-01-02T02:55:25.500Z,83.39
2019-01-02T02:57:54.624Z,84.28
2019-01-02T03:00:23.935Z,84.26
2019-01-02T03:02:53.229Z,84.52
2019-01-02T03:05:22.489Z,85.52
2019-01-02T03:07:52.469Z,84.83
2019-01-02T03:10:21.817Z,84.13
2019-01-02T03:12:51.400Z,82.27
2019-01-02T03:15:20.843Z,81.26
2019-01-02T03:17:49.899Z,79.77
2019-01-02T03:20:18.955Z,81.12
2019-01-02T03:22:47.988Z,80.93
2019-01-02T03:25:17.523Z,80.29
2019-01-02T03:27:47.451Z,81.18
2019-01-02T03:30:18.987Z,82.00
2019-01-02T03:32:48.688Z,81.20
2019-01-02T03:35:18.088Z,80.97
2019-01-02T03:37:47.310Z,81.81
2019-01-02T03:40:16.337Z,82.17
2019-01-02T03:42:45.549Z,81.73
2019-01-02T03:45:17.310Z,82.25
2019-01-02T03:47:46.578Z,81.71
2019-01-02T03:50:17.474Z,82.05
2019-01-02T03:52:46.546Z,83.13
2019-01-02T03:55:15.650Z,83.53
2019-01-02T03:57:44.828Z,84.07
2019-01-02T04:00:16.125Z,84.17
2019-01-02T04:02:45.362Z,84.92
2019-01-02T04:05:17.479Z,84.37
2019-01-02T04:07:50.025Z,84.81
2019-01-02T04:10:19.108Z,84.64
2019-01-02T04:12:48.182Z,84.46
2019-01-02T04:15:17.222Z,84.29
2019-01-02T04:17:46.439Z,82.72
2019-01-02T04:20:15.674Z,82.58
2019-01-02T04:22:46.636Z,82.31
2019-01-02T04:25:16.021Z,80.25
2019-01-02T04:27:45.306Z,80.11
2019-01-02T04:30:15.534Z,79.49
2019-01-02T04:32:44.706Z,78.14
2019-01-02T04:35:13.853Z,78.15
2019-01-02T04:37:43.137Z,77.17
2019-01-02T04:40:13.452Z,77.13
2019-01-02T04:42:42.487Z,77.06
2019-01-02T04:45:12.003Z,76.80
2019-01-02T04:47:41.254Z,77.21
2019-01-02T04:50:15.026Z,77.58
2019-01-02T04:52:44.266Z,77.80
2019-01-02T04:55:13.533Z,77.76
2019-01-02T04:57:42.681Z,77.46
2019-01-02T05:00:14.369Z,77.37
2019-01-02T05:02:45.977Z,77.43
2019-01-02T05:05:15.296Z,77.05
2019-01-02T05:07:44.988Z,78.14
2019-01-02T05:10:15.065Z,78.66
2019-01-02T05:12:44.117Z,78.87
2019-01-02T05:15:13.188Z,78.22
2019-01-02T05:17:42.354Z,78.04
2019-01-02T05:20:13.887Z,77.86
2019-01-02T05:22:43.091Z,77.27
2019-01-02T05:25:12.155Z,77.89
2019-01-02T05:27:41.245Z,78.29
2019-01-02T05:30:13.436Z,77.24
2019-01-02T05:32:42.537Z,75.08
2019-01-02T05:35:11.910Z,74.06
2019-01-02T05:37:40.951Z,75.88
2019-01-02T05:40:13.161Z,74.47
2019-01-02T05:42:42.426Z,75.29
2019-01-02T05:45:11.657Z,75.35
2019-01-02T05:47:41.016Z,74.71
2019-01-02T05:50:10.299Z,74.97
2019-01-02T05:52:39.355Z,75.09
2019-01-02T05:55:08.740Z,73.93
2019-01-02T05:57:37.815Z,74.68
2019-01-02T06:00:08.168Z,74.43
2019-01-02T06:02:37.211Z,74.92
2019-01-02T06:05:06.268Z,75.87
2019-01-02T06:07:35.698Z,74.91
2019-01-02T06:10:05.248Z,74.91
2019-01-02T06:12:34.907Z,74.26
2019-01-02T06:15:04.274Z,75.21
2019-01-02T06:17:33.526Z,73.97
2019-01-02T06:20:02.721Z,74.57
2019-01-02T06:22:32.070Z,74.31
2019-01-02T06:25:01.105Z,74.80
2019-01-02T06:27:30.357Z,74.80
2019-01-02T06:29:59.739Z,76.51
2019-01-02T06:32:28.793Z,76.56
2019-01-02T06:34:58.238Z,77.14
2019-01-02T06:37:27.271Z,74.54
2019-01-02T06:39:56.626Z,76.60
2019-01-02T06:42:25.646Z,74.54
2019-01-02T06:44:54.904Z,74.77
2019-01-02T06:47:24.143Z,75.19
2019-01-02T06:49:53.255Z,75.12
2019-01-02T06:52:22.471Z,75.16
2019-01-02T06:54:51.714Z,75.46
2019-01-02T06:57:21.143Z,75.79
2019-01-02T06:59:50.280Z,75.70
2019-01-02T07:02:19.490Z,73.97
2019-01-02T07:04:48.674Z,75.45
2019-01-02T07:07:17.891Z,75.30
2019-01-02T07:09:47.070Z,75.30
2019-01-02T07:12:16.385Z,74.99
2019-01-02T07:14:45.638Z,75.77
2019-01-02T07:17:14.719Z,75.32
2019-01-02T07:19:43.981Z,75.32
2019-01-02T07:22:13.303Z,74.67
2019-01-02T07:24:42.451Z,74.87
2019-01-02T07:27:11.687Z,75.46
2019-01-02T07:29:40.826Z,73.90
2019-01-02T07:32:10.111Z,73.35
2019-01-02T07:35:26.511Z,75.12
2019-01-02T07:38:19.812Z,74.94
2019-01-02T07:41:44.760Z,76.92
2019-01-02T07:44:52.767Z,76.92
2019-01-02T07:48:01.610Z,77.33
2019-01-02T07:51:16.534Z,76.13
2019-01-02T07:54:15.948Z,76.13
2019-01-02T07:57:10.481Z,75.67
2019-01-02T08:00:20.561Z,75.75
2019-01-02T08:03:20.858Z,75.86
2019-01-02T08:06:30.289Z,81.42
2019-01-02T08:09:42.253Z,78.31
2019-01-02T08:12:52.580Z,77.45
2019-01-02T08:15:40.044Z,73.67
2019-01-02T08:19:02.197Z,73.83
2019-01-02T08:22:07.836Z,72.59
2019-01-02T08:25:20.468Z,73.81
2019-01-02T08:28:35.410Z,72.21
2019-01-02T08:31:38.069Z,72.63
2019-01-02T08:34:47.017Z,73.98
2019-01-02T08:37:47.326Z,74.49
2019-01-02T08:40:39.567Z,75.07
2019-01-02T08:43:38.465Z,75.07
2019-01-02T08:46:29.215Z,76.64
2019-01-02T08:49:49.145Z,77.25
2019-01-02T08:53:06.147Z,76.03
2019-01-02T08:56:31.566Z,76.03
2019-01-02T08:59:30.433Z,75.06
2019-01-02T09:02:17.430Z,75.31
2019-01-02T09:05:29.611Z,75.31
2019-01-02T09:08:24.252Z,75.10
2019-01-02T09:11:34.978Z,75.02
2019-01-02T09:15:03.612Z,76.06
2019-01-02T09:18:12.931Z,76.33
2019-01-02T09:21:18.363Z,76.33
2019-01-02T09:24:34.673Z,74.26
2019-01-02T09:27:44.798Z,74.80
2019-01-02T09:31:23.009Z,74.80
2019-01-02T09:34:39.064Z,75.22
2019-01-02T09:37:47.746Z,75.60
2019-01-02T09:40:47.692Z,76.31
2019-01-02T09:44:12.990Z,75.42
2019-01-02T09:47:28.255Z,75.42
2019-01-02T09:50:47.894Z,76.49
2019-01-02T09:54:02.827Z,76.45
2019-01-02T09:56:50.022Z,75.37
2019-01-02T09:59:46.001Z,75.85
2019-01-02T10:02:49.856Z,75.72
2019-01-02T10:05:46.353Z,75.46
2019-01-02T10:09:16.777Z,76.30
2019-01-02T10:12:18.799Z,76.23
2019-01-02T10:15:26.930Z,75.71
2019-01-02T10:18:15.797Z,75.02
2019-01-02T10:21:25.966Z,76.43
2019-01-02T10:24:31.210Z,76.92
2019-01-02T10:27:51.085Z,75.73
2019-01-02T10:30:51.627Z,77.06
2019-01-02T10:33:50.168Z,76.66
2019-01-02T10:36:55.326Z,77.91
2019-01-02T10:39:54.947Z,77.58
2019-01-02T10:43:05.134Z,76.39
2019-01-02T10:46:17.172Z,77.34
2019-01-02T10:49:45.518Z,76.46
2019-01-02T10:53:01.942Z,77.54
2019-01-02T10:56:07.367Z,76.45
2019-01-02T10:58:54.048Z,76.80
2019-01-02T11:01:54.884Z,77.69
2019-01-02T11:04:52.445Z,77.11
2019-01-02T11:07:51.611Z,76.89
2019-01-02T11:10:45.965Z,78.10
2019-01-02T11:14:02.127Z,76.47
2019-01-02T11:17:09.313Z,74.70
2019-01-02T11:20:27.240Z,74.18
2019-01-02T11:23:40.645Z,72.81
2019-01-02T11:26:53.808Z,71.74
2019-01-02T11:29:57.849Z,71.27
2019-01-02T11:32:51.792Z,70.20
2019-01-02T11:35:52.614Z,71.24
2019-01-02T11:38:53.192Z,69.59
2019-01-02T11:41:41.085Z,69.97
2019-01-02T11:44:31.862Z,69.96
2019-01-02T11:47:00.917Z,68.43
2019-01-02T11:49:30.184Z,67.23
2019-01-02T11:51:59.450Z,66.23
2019-01-02T11:54:28.783Z,66.37
2019-01-02T11:56:57.975Z,66.19
2019-01-02T11:59:28.550Z,65.60
2019-01-02T12:01:57.600Z,65.60
2019-01-02T12:04:26.680Z,65.99
2019-01-02T12:06:55.720Z,66.04
2019-01-02T12:09:25.044Z,65.75
2019-01-02T12:11:54.324Z,67.27
2019-01-02T12:14:25.246Z,65.41
2019-01-02T12:16:54.594Z,67.47
2019-01-02T12:19:24.017Z,66.99
2019-01-02T12:21:53.092Z,68.41
2019-01-02T12:24:22.304Z,68.96
2019-01-02T12:26:51.756Z,68.96
2019-01-02T12:29:20.882Z,67.48
2019-01-02T12:31:50.025Z,67.61
2019-01-02T12:34:19.177Z,68.49
2019-01-02T12:36:48.295Z,68.19
2019-01-02T12:39:17.454Z,68.26
2019-01-02T12:41:46.856Z,67.93
2019-01-02T12:44:15.909Z,68.23
2019-01-02T12:46:45.319Z,68.32
2019-01-02T12:49:14.379Z,68.58
2019-01-02T12:51:43.764Z,68.57
2019-01-02T12:54:12.847Z,69.22
2019-01-02T12:56:42.112Z,68.97
2019-01-02T12:59:14.464Z,69.33
2019-01-02T13:02:03.772Z,69.99
2019-01-02T13:04:58.710Z,71.48
2019-01-02T13:08:12.940Z,71.30
2019-01-02T13:11:10.231Z,72.29
2019-01-02T13:14:18.759Z,71.48
2019-01-02T13:17:23.558Z,72.17
2019-01-02T13:20:29.241Z,71.79
2019-01-02T13:23:26.406Z,70.62
2019-01-02T13:26:22.482Z,70.00
2019-01-02T13:29:24.470Z,69.32
2019-01-02T13:32:24.169Z,68.77
2019-01-02T13:35:34.641Z,67.94
2019-01-02T13:38:43.771Z,68.04
2019-01-02T13:41:56.223Z,65.54
2019-01-02T13:45:03.582Z,65.52
2019-01-02T13:47:57.267Z,63.92
2019-01-02T13:51:09.283Z,65.11
2019-01-02T13:53:38.561Z,64.25
2019-01-02T13:56:10.181Z,63.69
2019-01-02T13:58:39.239Z,63.87
2019-01-02T14:01:08.283Z,64.52
2019-01-02T14:03:37.414Z,64.83
2019-01-02T14:06:06.696Z,63.81
2019-01-02T14:08:36.017Z,64.37
2019-01-02T14:11:05.144Z,63.64
2019-01-02T14:13:34.407Z,63.33
2019-01-02T14:16:05.472Z,64.25
2019-01-02T14:18:34.784Z,64.52
2019-01-02T14:21:03.956Z,65.35
2019-01-02T14:23:33.225Z,63.82
2019-01-02T14:26:04.275Z,63.70
2019-01-02T14:28:33.491Z,63.64
2019-01-02T14:31:02.953Z,65.19
2019-01-02T14:33:32.058Z,64.51
2019-01-02T14:36:01.186Z,64.45
2019-01-02T14:38:30.425Z,64.23
2019-01-02T14:40:59.696Z,64.93
2019-01-02T14:43:28.816Z,65.14
2019-01-02T14:45:58.003Z,64.79
2019-01-02T14:48:27.359Z,65.65
2019-01-02T14:50:56.675Z,66.40
2019-01-02T14:53:25.895Z,66.96
2019-01-02T14:55:55.016Z,66.81
2019-01-02T14:58:24.364Z,66.83
2019-01-02T15:00:53.482Z,66.47
2019-01-02T15:03:22.618Z,67.19
2019-01-02T15:05:51.809Z,66.80
2019-01-02T15:08:22.343Z,66.05
2019-01-02T15:10:52.925Z,64.42
2019-01-02T15:13:22.555Z,64.10
2019-01-02T15:15:51.684Z,63.60
2019-01-02T15:18:21.170Z,62.20
2019-01-02T15:20:50.394Z,62.24
2019-01-02T15:23:19.502Z,62.20
2019-01-02T15:25:48.900Z,62.70
2019-01-02T15:28:18.036Z,61.50
2019-01-02T15:30:47.172Z,62.21
2019-01-02T15:33:16.468Z,62.63
2019-01-02T15:35:48.936Z,62.63
2019-01-02T15:38:16.756Z,64.30
2019-01-02T15:40:45.878Z,64.22
2019-01-02T15:43:15.175Z,64.71
2019-01-02T15:45:44.349Z,64.68
2019-01-02T15:48:13.690Z,65.62
2019-01-02T15:50:43.000Z,65.74
2019-01-02T15:53:12.128Z,65.44
2019-01-02T15:55:41.456Z,65.42
2019-01-02T15:58:10.585Z,66.59
2019-01-02T16:00:39.678Z,66.86
2019-01-02T16:03:08.778Z,67.07
2019-01-02T16:05:39.097Z,66.83
2019-01-02T16:08:08.441Z,68.23
2019-01-02T16:10:37.547Z,68.72
2019-01-02T16:13:06.699Z,69.25
2019-01-02T16:15:35.855Z,71.04
2019-01-02T16:18:05.245Z,71.04
2019-01-02T16:20:34.536Z,71.19
2019-01-02T16:23:03.806Z,72.13
2019-01-02T16:25:32.937Z,71.43
2019-01-02T16:28:02.077Z,72.58
2019-01-02T16:30:31.351Z,76.79
2019-01-02T16:33:00.439Z,74.73
2019-01-02T16:35:29.800Z,74.57
2019-01-02T16:37:59.360Z,74.77
2019-01-02T16:40:28.418Z,75.17
2019-01-02T16:42:57.655Z,76.12
2019-01-02T16:45:27.035Z,76.12
2019-01-02T16:47:56.334Z,76.16
2019-01-02T16:50:25.477Z,76.26
2019-01-02T16:52:54.559Z,76.14
2019-01-02T16:55:23.639Z,77.25
2019-01-02T16:57:52.722Z,77.55
2019-01-02T17:00:21.774Z,77.55
2019-01-02T17:02:51.120Z,78.37
2019-01-02T17:05:20.338Z,78.37
2019-01-02T17:07:49.655Z,78.75
2019-01-02T17:10:18.764Z,78.73
2019-01-02T17:12:48.031Z,78.73
2019-01-02T17:15:17.286Z,79.04
2019-01-02T17:17:46.759Z,79.50
2019-01-02T17:20:15.867Z,80.12
2019-01-02T17:22:45.011Z,80.29
2019-01-02T17:25:14.265Z,80.52
2019-01-02T17:27:43.939Z,81.05
2019-01-02T17:30:13.659Z,81.05
2019-01-02T17:32:42.787Z,80.96
2019-01-02T17:35:12.024Z,80.96
2019-01-02T17:37:41.204Z,81.09
2019-01-02T17:40:10.590Z,81.62
2019-01-02T17:42:39.679Z,81.37
2019-01-02T17:45:11.229Z,81.44
2019-01-02T17:47:40.996Z,81.44
2019-01-02T17:50:11.402Z,81.64
2019-01-02T17:52:40.548Z,81.59
2019-01-02T17:55:09.650Z,81.52
2019-01-02T17:57:38.909Z,81.85
2019-01-02T18:00:11.115Z,81.96
2019-01-02T18:02:40.229Z,82.04
2019-01-02T18:05:09.649Z,82.04
2019-01-02T18:07:38.744Z,82.36
2019-01-02T18:10:08.865Z,82.60
2019-01-02T18:12:38.030Z,83.79
2019-01-02T18:15:07.763Z,83.79
2019-01-02T18:17:36.873Z,84.02
2019-01-02T18:20:07.797Z,84.02
2019-01-02T18:22:36.930Z,83.89
2019-01-02T18:25:06.194Z,83.89
2019-01-02T18:27:35.429Z,84.19
2019-01-02T18:30:06.547Z,84.29
2019-01-02T18:32:35.807Z,84.29
2019-01-02T18:35:05.374Z,84.19
2019-01-02T18:37:34.455Z,84.01
2019-01-02T18:40:03.613Z,83.96
2019-01-02T18:42:32.703Z,84.04
2019-01-02T18:45:01.911Z,83.82
2019-01-02T18:47:31.085Z,83.90
2019-01-02T18:50:00.222Z,83.93
2019-01-02T18:52:29.707Z,84.11
2019-01-02T18:54:58.793Z,84.11
2019-01-02T18:57:28.163Z,84.18
2019-01-02T18:59:57.314Z,84.18
2019-01-02T19:02:26.543Z,84.05
2019-01-02T19:04:55.848Z,84.06
2019-01-02T19:07:24.971Z,84.51
2019-01-02T19:09:54.431Z,84.83
2019-01-02T19:12:23.593Z,85.41
2019-01-02T19:14:52.696Z,85.59
2019-01-02T19:17:21.827Z,85.84
2019-01-02T19:19:51.052Z,85.97
2019-01-02T19:22:20.459Z,85.97
2019-01-02T19:24:49.579Z,86.28
2019-01-02T19:27:18.873Z,86.13
2019-01-02T19:29:49.912Z,86.42
2019-01-02T19:32:19.033Z,86.68
2019-01-02T19:34:48.612Z,87.12
2019-01-02T19:37:17.743Z,87.34
2019-01-02T19:39:46.883Z,87.28
2019-01-02T19:42:16.048Z,87.12
2019-01-02T19:44:45.167Z,87.42
2019-01-02T19:47:14.401Z,87.47
2019-01-02T19:49:43.894Z,87.79
2019-01-02T19:52:13.106Z,88.10
2019-01-02T19:54:42.252Z,88.04
2019-01-02T19:57:11.578Z,88.33
2019-01-02T19:59:40.812Z,88.61
2019-01-02T20:02:09.945Z,88.85
2019-01-02T20:04:39.120Z,88.86
2019-01-02T20:07:08.244Z,89.03
2019-01-02T20:09:37.399Z,89.45
2019-01-02T20:12:06.520Z,89.40
2019-01-02T20:14:35.821Z,89.38
2019-01-02T20:17:05.066Z,89.44
2019-01-02T20:19:34.315Z,89.62
2019-01-02T20:22:03.447Z,89.41
2019-01-02T20:24:32.793Z,89.35
2019-01-02T20:27:02.453Z,89.50
2019-01-02T20:29:31.738Z,89.82
2019-01-02T20:32:04.225Z,89.96
2019-01-02T20:34:31.999Z,90.05
2019-01-02T20:37:01.449Z,90.18
2019-01-02T20:39:30.951Z,90.36
2019-01-02T20:42:00.482Z,90.50
2019-01-02T20:44:29.742Z,90.42
2019-01-02T20:46:58.929Z,90.37
2019-01-02T20:50:17.051Z,90.54
2019-01-02T20:52:55.244Z,90.92
2019-01-02T20:58:55.247Z,91.27
2019-01-02T21:02:03.574Z,91.29
2019-01-02T21:04:46.081Z,91.25
2019-01-02T21:07:20.628Z,91.56
2019-01-02T21:09:52.231Z,91.62
2019-01-02T21:12:30.715Z,91.39
2019-01-02T21:15:25.260Z,91.35
2019-01-02T21:17:55.569Z,91.35
2019-01-02T21:20:27.234Z,91.68
2019-01-02T21:22:56.826Z,91.81
2019-01-02T21:25:26.512Z,91.94
2019-01-02T21:27:55.692Z,92.18
2019-01-02T21:30:26.658Z,92.18
2019-01-02T21:32:56.001Z,92.16
2019-01-02T21:35:25.239Z,91.94
2019-01-02T21:37:54.660Z,91.79
2019-01-02T21:40:23.880Z,92.17
2019-01-02T21:42:53.149Z,92.34
2019-01-02T21:45:22.336Z,92.02
2019-01-02T21:47:51.682Z,91.57
2019-01-02T21:50:20.833Z,91.33
2019-01-02T21:52:50.137Z,91.32
2019-01-02T21:55:19.419Z,91.25
2019-01-02T21:57:48.937Z,91.36
2019-01-02T22:00:18.508Z,91.64
2019-01-02T22:02:47.960Z,91.73
2019-01-02T22:05:17.522Z,91.70
2019-01-02T22:07:46.979Z,91.63
2019-01-02T22:10:16.311Z,91.61
2019-01-02T22:12:45.658Z,91.65
2019-01-02T22:15:15.060Z,91.54
2019-01-02T22:17:44.289Z,91.59
2019-01-02T22:20:13.382Z,91.51
2019-01-02T22:22:43.111Z,91.69
2019-01-02T22:25:12.688Z,91.40
2019-01-02T22:27:41.840Z,91.41
2019-01-02T22:30:11.267Z,91.50
2019-01-02T22:32:40.528Z,91.85
2019-01-02T22:35:10.571Z,91.82
2019-01-02T22:37:39.758Z,91.87
2019-01-02T22:40:09.615Z,91.72
2019-01-02T22:42:38.928Z,91.68
2019-01-02T22:45:08.227Z,91.54
2019-01-02T22:47:37.580Z,91.60
2019-01-02T22:50:08.750Z,91.79
2019-01-02T22:52:37.986Z,92.02
2019-01-02T22:55:07.220Z,91.66
2019-01-02T22:57:36.513Z,91.63
2019-01-02T23:00:09.296Z,91.61
2019-01-02T23:02:52.211Z,91.82
2019-01-02T23:05:35.038Z,91.78
2019-01-02T23:08:23.645Z,91.81
2019-01-02T23:11:11.079Z,91.91
2019-01-02T23:13:59.325Z,92.26
2019-01-02T23:16:46.087Z,92.34
2019-01-02T23:19:28.547Z,92.59
2019-01-02T23:22:15.282Z,92.58
2019-01-02T23:25:02.241Z,92.99
2019-01-02T23:27:53.613Z,93.13
2019-01-02T23:30:41.188Z,93.55
2019-01-02T23:33:32.127Z,93.60
2019-01-02T23:36:26.204Z,93.62
2019-01-02T23:39:13.068Z,94.06
2019-01-02T23:42:00.002Z,94.24
2019-01-02T23:44:46.956Z,94.34
2019-01-02T23:47:37.814Z,94.15
2019-01-02T23:50:22.459Z,94.11
2019-01-02T23:53:09.596Z,94.23
2019-01-02T23:56:03.972Z,94.21
2019-01-02T23:58:56.091Z,94.21
